Argora, Idaho
Current Conditions -  °F | °C
As of 5:53 PM on Saturday 25 Oct 2014 (Local Time) from KRXE Reporting Station
Clear Clear  
Wind Chill: 67°   Ceiling: Unl
Heat Index: 67°   Visibility: 10mi
Dew Point: 30°   Wind: 16mph
Humidity: 25%   Direction: 230°SW
Pressure: 29.88"   Gusts: NA
Location:  44.2396°N, 112.579°W
Report Text: KRXE 252353Z AUTO 23014KT 10SM CLR 19/M01 A2988 RMK AO2 SLP102 T01941011 10233 20172 56011
Loading
Personal Weather Stations






























Interactive Weather Map
Tropical Storm Tracking
New forecast layout! Learn more

10-Day Weather Forecast

Advertisements
Track Severe Weather on mobile